sensor_id;sensor_type;location;lat;lon;timestamp;P1;durP1;ratioP1;P2;durP2;ratioP2
28311;SDS011;15572;48.810;9.148;2024-03-17T00:02:06;8.53;;;5.70;;
28311;SDS011;15572;48.810;9.148;2024-03-17T00:07:03;7.90;;;5.10;;
28311;SDS011;15572;48.810;9.148;2024-03-17T00:11:59;7.03;;;5.03;;
28311;SDS011;15572;48.810;9.148;2024-03-17T00:16:56;8.43;;;4.97;;
28311;SDS011;15572;48.810;9.148;2024-03-17T00:21:54;8.53;;;5.30;;
28311;SDS011;15572;48.810;9.148;2024-03-17T00:26:50;6.77;;;4.90;;
28311;SDS011;15572;48.810;9.148;2024-03-17T00:31:46;8.43;;;5.70;;
28311;SDS011;15572;48.810;9.148;2024-03-17T00:36:43;8.37;;;5.23;;
28311;SDS011;15572;48.810;9.148;2024-03-17T00:41:40;7.97;;;5.20;;
28311;SDS011;15572;48.810;9.148;2024-03-17T00:46:37;9.03;;;5.00;;
28311;SDS011;15572;48.810;9.148;2024-03-17T00:51:34;7.67;;;4.47;;
28311;SDS011;15572;48.810;9.148;2024-03-17T00:56:31;9.57;;;5.10;;
28311;SDS011;15572;48.810;9.148;2024-03-17T01:01:28;8.57;;;5.20;;
28311;SDS011;15572;48.810;9.148;2024-03-17T01:06:25;11.33;;;5.43;;
28311;SDS011;15572;48.810;9.148;2024-03-17T01:11:21;6.63;;;5.13;;
28311;SDS011;15572;48.810;9.148;2024-03-17T01:16:20;6.93;;;4.60;;
28311;SDS011;15572;48.810;9.148;2024-03-17T01:21:17;6.27;;;4.93;;
28311;SDS011;15572;48.810;9.148;2024-03-17T01:26:15;5.00;;;4.10;;
28311;SDS011;15572;48.810;9.148;2024-03-17T01:31:12;6.33;;;4.60;;
28311;SDS011;15572;48.810;9.148;2024-03-17T01:36:08;8.83;;;5.23;;
28311;SDS011;15572;48.810;9.148;2024-03-17T01:41:06;10.10;;;5.03;;
28311;SDS011;15572;48.810;9.148;2024-03-17T01:46:02;7.37;;;5.00;;
28311;SDS011;15572;48.810;9.148;2024-03-17T01:50:59;5.83;;;4.30;;
28311;SDS011;15572;48.810;9.148;2024-03-17T01:55:56;7.87;;;4.80;;
28311;SDS011;15572;48.810;9.148;2024-03-17T02:00:56;6.30;;;4.33;;
28311;SDS011;15572;48.810;9.148;2024-03-17T02:05:53;7.90;;;4.63;;
28311;SDS011;15572;48.810;9.148;2024-03-17T02:10:52;6.60;;;5.07;;
28311;SDS011;15572;48.810;9.148;2024-03-17T02:15:48;6.70;;;4.77;;
28311;SDS011;15572;48.810;9.148;2024-03-17T02:20:46;8.63;;;4.93;;
28311;SDS011;15572;48.810;9.148;2024-03-17T02:25:55;8.77;;;4.83;;
28311;SDS011;15572;48.810;9.148;2024-03-17T02:30:51;8.97;;;5.30;;
28311;SDS011;15572;48.810;9.148;2024-03-17T02:35:48;7.20;;;5.03;;
28311;SDS011;15572;48.810;9.148;2024-03-17T02:40:44;9.77;;;6.33;;
28311;SDS011;15572;48.810;9.148;2024-03-17T02:45:43;12.63;;;6.83;;
28311;SDS011;15572;48.810;9.148;2024-03-17T02:50:39;10.87;;;6.37;;
28311;SDS011;15572;48.810;9.148;2024-03-17T02:55:36;8.80;;;6.00;;
28311;SDS011;15572;48.810;9.148;2024-03-17T03:00:32;8.27;;;5.97;;
28311;SDS011;15572;48.810;9.148;2024-03-17T03:05:31;8.63;;;5.20;;
28311;SDS011;15572;48.810;9.148;2024-03-17T03:10:28;9.70;;;6.13;;
28311;SDS011;15572;48.810;9.148;2024-03-17T03:15:24;6.63;;;4.57;;
28311;SDS011;15572;48.810;9.148;2024-03-17T03:20:20;8.03;;;5.50;;
28311;SDS011;15572;48.810;9.148;2024-03-17T03:25:19;7.10;;;5.03;;
28311;SDS011;15572;48.810;9.148;2024-03-17T03:30:15;7.67;;;5.43;;
28311;SDS011;15572;48.810;9.148;2024-03-17T03:35:16;9.77;;;5.53;;
28311;SDS011;15572;48.810;9.148;2024-03-17T03:40:12;11.03;;;6.13;;
28311;SDS011;15572;48.810;9.148;2024-03-17T03:45:12;8.40;;;5.63;;
28311;SDS011;15572;48.810;9.148;2024-03-17T03:50:09;10.37;;;5.53;;
28311;SDS011;15572;48.810;9.148;2024-03-17T03:55:07;10.40;;;5.13;;
28311;SDS011;15572;48.810;9.148;2024-03-17T04:00:05;6.80;;;4.90;;
28311;SDS011;15572;48.810;9.148;2024-03-17T04:05:09;7.27;;;4.87;;
28311;SDS011;15572;48.810;9.148;2024-03-17T04:10:06;8.23;;;5.90;;
28311;SDS011;15572;48.810;9.148;2024-03-17T04:15:03;7.90;;;4.50;;
28311;SDS011;15572;48.810;9.148;2024-03-17T04:20:01;7.77;;;5.77;;
28311;SDS011;15572;48.810;9.148;2024-03-17T04:24:59;8.97;;;5.53;;
28311;SDS011;15572;48.810;9.148;2024-03-17T04:29:56;6.50;;;4.97;;
28311;SDS011;15572;48.810;9.148;2024-03-17T04:34:53;8.73;;;5.40;;
28311;SDS011;15572;48.810;9.148;2024-03-17T04:39:50;9.47;;;6.10;;
28311;SDS011;15572;48.810;9.148;2024-03-17T04:44:47;11.17;;;5.27;;
28311;SDS011;15572;48.810;9.148;2024-03-17T04:49:44;12.60;;;6.97;;
28311;SDS011;15572;48.810;9.148;2024-03-17T04:54:40;9.47;;;5.60;;
28311;SDS011;15572;48.810;9.148;2024-03-17T04:59:38;9.37;;;6.17;;
28311;SDS011;15572;48.810;9.148;2024-03-17T05:04:35;7.87;;;5.80;;
28311;SDS011;15572;48.810;9.148;2024-03-17T05:09:32;9.20;;;6.20;;
28311;SDS011;15572;48.810;9.148;2024-03-17T05:14:28;11.37;;;6.40;;
28311;SDS011;15572;48.810;9.148;2024-03-17T05:19:25;14.10;;;10.83;;
28311;SDS011;15572;48.810;9.148;2024-03-17T05:24:23;16.33;;;12.00;;
28311;SDS011;15572;48.810;9.148;2024-03-17T05:29:19;11.37;;;7.63;;
28311;SDS011;15572;48.810;9.148;2024-03-17T05:34:17;10.03;;;6.90;;
28311;SDS011;15572;48.810;9.148;2024-03-17T05:39:13;11.93;;;7.47;;
28311;SDS011;15572;48.810;9.148;2024-03-17T05:44:11;13.50;;;7.73;;
28311;SDS011;15572;48.810;9.148;2024-03-17T05:49:09;12.30;;;7.27;;
28311;SDS011;15572;48.810;9.148;2024-03-17T05:54:06;12.97;;;7.60;;
28311;SDS011;15572;48.810;9.148;2024-03-17T05:59:03;9.33;;;6.60;;
28311;SDS011;15572;48.810;9.148;2024-03-17T06:04:01;9.43;;;6.73;;
28311;SDS011;15572;48.810;9.148;2024-03-17T06:08:59;11.40;;;7.20;;
28311;SDS011;15572;48.810;9.148;2024-03-17T06:13:56;12.47;;;7.57;;
28311;SDS011;15572;48.810;9.148;2024-03-17T06:18:52;9.40;;;7.20;;
28311;SDS011;15572;48.810;9.148;2024-03-17T06:23:50;10.53;;;7.17;;
28311;SDS011;15572;48.810;9.148;2024-03-17T06:28:46;11.30;;;7.37;;
28311;SDS011;15572;48.810;9.148;2024-03-17T06:33:43;14.40;;;8.33;;
28311;SDS011;15572;48.810;9.148;2024-03-17T06:38:39;12.10;;;7.90;;
28311;SDS011;15572;48.810;9.148;2024-03-17T06:43:37;16.43;;;10.00;;
28311;SDS011;15572;48.810;9.148;2024-03-17T06:48:34;21.40;;;11.57;;
28311;SDS011;15572;48.810;9.148;2024-03-17T06:53:31;21.27;;;12.33;;
28311;SDS011;15572;48.810;9.148;2024-03-17T06:58:28;20.73;;;13.07;;
28311;SDS011;15572;48.810;9.148;2024-03-17T07:03:26;21.40;;;12.57;;
28311;SDS011;15572;48.810;9.148;2024-03-17T07:08:24;24.77;;;14.03;;
28311;SDS011;15572;48.810;9.148;2024-03-17T07:13:21;25.67;;;13.77;;
28311;SDS011;15572;48.810;9.148;2024-03-17T07:18:17;21.90;;;12.83;;
28311;SDS011;15572;48.810;9.148;2024-03-17T07:23:15;17.57;;;12.33;;
28311;SDS011;15572;48.810;9.148;2024-03-17T07:28:11;19.97;;;13.47;;
28311;SDS011;15572;48.810;9.148;2024-03-17T07:33:08;20.93;;;12.63;;
28311;SDS011;15572;48.810;9.148;2024-03-17T07:38:04;19.67;;;13.60;;
28311;SDS011;15572;48.810;9.148;2024-03-17T07:43:02;24.03;;;14.53;;
28311;SDS011;15572;48.810;9.148;2024-03-17T07:47:58;21.47;;;13.40;;
28311;SDS011;15572;48.810;9.148;2024-03-17T07:52:55;19.97;;;13.97;;
28311;SDS011;15572;48.810;9.148;2024-03-17T07:57:51;18.73;;;13.13;;
28311;SDS011;15572;48.810;9.148;2024-03-17T08:02:49;16.97;;;12.87;;
28311;SDS011;15572;48.810;9.148;2024-03-17T08:07:45;21.00;;;13.80;;
28311;SDS011;15572;48.810;9.148;2024-03-17T08:12:42;21.47;;;15.50;;
28311;SDS011;15572;48.810;9.148;2024-03-17T08:17:38;21.07;;;15.03;;
28311;SDS011;15572;48.810;9.148;2024-03-17T08:22:36;21.63;;;16.00;;
28311;SDS011;15572;48.810;9.148;2024-03-17T08:27:32;21.00;;;16.60;;
28311;SDS011;15572;48.810;9.148;2024-03-17T08:32:28;21.33;;;16.40;;
28311;SDS011;15572;48.810;9.148;2024-03-17T08:37:25;22.10;;;16.23;;
28311;SDS011;15572;48.810;9.148;2024-03-17T08:42:23;18.63;;;14.27;;
28311;SDS011;15572;48.810;9.148;2024-03-17T08:47:19;17.07;;;14.20;;
28311;SDS011;15572;48.810;9.148;2024-03-17T08:52:16;18.23;;;14.17;;
28311;SDS011;15572;48.810;9.148;2024-03-17T08:57:12;17.13;;;13.37;;
28311;SDS011;15572;48.810;9.148;2024-03-17T09:02:11;19.40;;;14.13;;
28311;SDS011;15572;48.810;9.148;2024-03-17T09:07:09;18.57;;;13.40;;
28311;SDS011;15572;48.810;9.148;2024-03-17T09:12:06;14.27;;;12.03;;
28311;SDS011;15572;48.810;9.148;2024-03-17T09:17:03;15.23;;;11.93;;
28311;SDS011;15572;48.810;9.148;2024-03-17T09:22:01;14.67;;;11.43;;
28311;SDS011;15572;48.810;9.148;2024-03-17T09:26:57;14.63;;;11.53;;
28311;SDS011;15572;48.810;9.148;2024-03-17T09:31:54;16.20;;;10.63;;
28311;SDS011;15572;48.810;9.148;2024-03-17T09:36:50;12.10;;;9.77;;
28311;SDS011;15572;48.810;9.148;2024-03-17T09:41:48;11.33;;;8.90;;
28311;SDS011;15572;48.810;9.148;2024-03-17T09:46:44;11.70;;;7.97;;
28311;SDS011;15572;48.810;9.148;2024-03-17T09:51:41;12.20;;;8.73;;
28311;SDS011;15572;48.810;9.148;2024-03-17T09:56:38;7.70;;;6.10;;
28311;SDS011;15572;48.810;9.148;2024-03-17T10:01:36;7.37;;;4.97;;
28311;SDS011;15572;48.810;9.148;2024-03-17T10:06:32;6.23;;;5.00;;
28311;SDS011;15572;48.810;9.148;2024-03-17T10:11:31;5.93;;;4.27;;
28311;SDS011;15572;48.810;9.148;2024-03-17T10:16:29;6.07;;;4.23;;
28311;SDS011;15572;48.810;9.148;2024-03-17T10:21:27;6.80;;;4.37;;
28311;SDS011;15572;48.810;9.148;2024-03-17T10:26:24;6.27;;;4.20;;
28311;SDS011;15572;48.810;9.148;2024-03-17T10:31:20;7.33;;;4.30;;
28311;SDS011;15572;48.810;9.148;2024-03-17T10:36:17;5.10;;;4.40;;
28311;SDS011;15572;48.810;9.148;2024-03-17T10:41:15;5.83;;;4.10;;
28311;SDS011;15572;48.810;9.148;2024-03-17T10:46:11;4.67;;;4.17;;
28311;SDS011;15572;48.810;9.148;2024-03-17T10:51:11;6.50;;;4.97;;
28311;SDS011;15572;48.810;9.148;2024-03-17T10:56:13;6.37;;;4.70;;
28311;SDS011;15572;48.810;9.148;2024-03-17T11:01:14;5.90;;;4.77;;
28311;SDS011;15572;48.810;9.148;2024-03-17T11:06:11;5.97;;;5.30;;
28311;SDS011;15572;48.810;9.148;2024-03-17T11:11:08;8.03;;;4.73;;
28311;SDS011;15572;48.810;9.148;2024-03-17T11:16:05;7.17;;;4.67;;
28311;SDS011;15572;48.810;9.148;2024-03-17T11:21:22;7.30;;;4.83;;
28311;SDS011;15572;48.810;9.148;2024-03-17T11:26:26;6.57;;;5.13;;
28311;SDS011;15572;48.810;9.148;2024-03-17T11:36:51;6.17;;;4.80;;
28311;SDS011;15572;48.810;9.148;2024-03-17T11:41:49;8.20;;;5.10;;
28311;SDS011;15572;48.810;9.148;2024-03-17T11:46:49;7.33;;;5.00;;
28311;SDS011;15572;48.810;9.148;2024-03-17T11:51:49;6.80;;;4.97;;
28311;SDS011;15572;48.810;9.148;2024-03-17T11:56:47;6.37;;;4.80;;
28311;SDS011;15572;48.810;9.148;2024-03-17T12:01:45;6.30;;;4.53;;
28311;SDS011;15572;48.810;9.148;2024-03-17T12:06:44;7.10;;;4.50;;
28311;SDS011;15572;48.810;9.148;2024-03-17T12:11:42;5.13;;;4.50;;
28311;SDS011;15572;48.810;9.148;2024-03-17T12:16:45;5.33;;;4.63;;
28311;SDS011;15572;48.810;9.148;2024-03-17T12:21:43;6.07;;;4.10;;
28311;SDS011;15572;48.810;9.148;2024-03-17T12:26:40;5.50;;;4.47;;
28311;SDS011;15572;48.810;9.148;2024-03-17T12:31:38;4.83;;;4.20;;
28311;SDS011;15572;48.810;9.148;2024-03-17T12:36:35;6.53;;;4.47;;
28311;SDS011;15572;48.810;9.148;2024-03-17T12:41:31;6.13;;;4.67;;
28311;SDS011;15572;48.810;9.148;2024-03-17T12:46:29;6.07;;;4.40;;
28311;SDS011;15572;48.810;9.148;2024-03-17T12:51:26;5.83;;;4.27;;
28311;SDS011;15572;48.810;9.148;2024-03-17T12:56:23;5.17;;;4.43;;
28311;SDS011;15572;48.810;9.148;2024-03-17T13:01:49;4.97;;;4.23;;
28311;SDS011;15572;48.810;9.148;2024-03-17T13:06:46;7.30;;;4.37;;
28311;SDS011;15572;48.810;9.148;2024-03-17T13:11:44;5.97;;;4.27;;
28311;SDS011;15572;48.810;9.148;2024-03-17T13:16:40;4.90;;;4.30;;
28311;SDS011;15572;48.810;9.148;2024-03-17T13:21:38;6.70;;;4.03;;
28311;SDS011;15572;48.810;9.148;2024-03-17T13:26:34;5.57;;;4.33;;
28311;SDS011;15572;48.810;9.148;2024-03-17T13:31:31;4.07;;;3.67;;
28311;SDS011;15572;48.810;9.148;2024-03-17T13:36:27;6.27;;;3.90;;
28311;SDS011;15572;48.810;9.148;2024-03-17T13:41:25;6.38;;;4.25;;
28311;SDS011;15572;48.810;9.148;2024-03-17T13:46:21;4.80;;;3.70;;
28311;SDS011;15572;48.810;9.148;2024-03-17T13:51:18;5.07;;;4.13;;
28311;SDS011;15572;48.810;9.148;2024-03-17T13:56:15;6.67;;;4.33;;
28311;SDS011;15572;48.810;9.148;2024-03-17T14:01:12;5.60;;;3.50;;
28311;SDS011;15572;48.810;9.148;2024-03-17T14:06:09;6.20;;;3.67;;
28311;SDS011;15572;48.810;9.148;2024-03-17T14:11:05;4.90;;;3.90;;
28311;SDS011;15572;48.810;9.148;2024-03-17T14:16:02;6.23;;;4.13;;
28311;SDS011;15572;48.810;9.148;2024-03-17T14:21:00;4.03;;;3.63;;
28311;SDS011;15572;48.810;9.148;2024-03-17T14:25:56;5.33;;;4.00;;
28311;SDS011;15572;48.810;9.148;2024-03-17T14:30:52;5.10;;;3.80;;
28311;SDS011;15572;48.810;9.148;2024-03-17T14:35:55;6.63;;;4.20;;
28311;SDS011;15572;48.810;9.148;2024-03-17T14:40:53;6.93;;;3.87;;
28311;SDS011;15572;48.810;9.148;2024-03-17T14:45:49;6.00;;;4.13;;
28311;SDS011;15572;48.810;9.148;2024-03-17T14:50:46;4.80;;;4.07;;
28311;SDS011;15572;48.810;9.148;2024-03-17T14:55:42;6.50;;;3.70;;
28311;SDS011;15572;48.810;9.148;2024-03-17T15:00:40;4.77;;;3.90;;
28311;SDS011;15572;48.810;9.148;2024-03-17T15:05:37;4.87;;;3.83;;
28311;SDS011;15572;48.810;9.148;2024-03-17T15:10:33;6.00;;;4.00;;
28311;SDS011;15572;48.810;9.148;2024-03-17T15:15:30;5.13;;;3.50;;
28311;SDS011;15572;48.810;9.148;2024-03-17T15:20:28;5.30;;;3.50;;
28311;SDS011;15572;48.810;9.148;2024-03-17T15:25:24;5.17;;;3.43;;
28311;SDS011;15572;48.810;9.148;2024-03-17T15:30:20;5.67;;;3.40;;
28311;SDS011;15572;48.810;9.148;2024-03-17T15:35:20;5.13;;;3.13;;
28311;SDS011;15572;48.810;9.148;2024-03-17T15:40:18;4.53;;;3.17;;
28311;SDS011;15572;48.810;9.148;2024-03-17T15:45:15;8.40;;;3.73;;
28311;SDS011;15572;48.810;9.148;2024-03-17T15:50:13;5.27;;;3.70;;
28311;SDS011;15572;48.810;9.148;2024-03-17T15:55:10;6.53;;;3.70;;
28311;SDS011;15572;48.810;9.148;2024-03-17T16:00:08;5.90;;;3.90;;
28311;SDS011;15572;48.810;9.148;2024-03-17T16:05:06;4.77;;;3.57;;
28311;SDS011;15572;48.810;9.148;2024-03-17T16:10:06;4.97;;;3.73;;
28311;SDS011;15572;48.810;9.148;2024-03-17T16:15:06;6.57;;;3.80;;
28311;SDS011;15572;48.810;9.148;2024-03-17T16:20:06;5.70;;;3.50;;
28311;SDS011;15572;48.810;9.148;2024-03-17T16:25:05;6.67;;;4.03;;
28311;SDS011;15572;48.810;9.148;2024-03-17T16:30:02;4.27;;;3.50;;
28311;SDS011;15572;48.810;9.148;2024-03-17T16:35:05;6.17;;;3.73;;
28311;SDS011;15572;48.810;9.148;2024-03-17T16:40:02;4.60;;;3.77;;
28311;SDS011;15572;48.810;9.148;2024-03-17T16:45:03;4.40;;;3.13;;
28311;SDS011;15572;48.810;9.148;2024-03-17T16:50:02;5.83;;;3.80;;
28311;SDS011;15572;48.810;9.148;2024-03-17T16:55:01;5.17;;;3.50;;
28311;SDS011;15572;48.810;9.148;2024-03-17T16:59:59;6.03;;;3.67;;
28311;SDS011;15572;48.810;9.148;2024-03-17T17:04:56;7.40;;;4.00;;
28311;SDS011;15572;48.810;9.148;2024-03-17T17:09:52;5.80;;;3.90;;
28311;SDS011;15572;48.810;9.148;2024-03-17T17:14:50;5.97;;;3.87;;
28311;SDS011;15572;48.810;9.148;2024-03-17T17:19:46;5.27;;;3.90;;
28311;SDS011;15572;48.810;9.148;2024-03-17T17:24:45;6.77;;;3.77;;
28311;SDS011;15572;48.810;9.148;2024-03-17T17:29:41;4.63;;;3.60;;
28311;SDS011;15572;48.810;9.148;2024-03-17T17:34:39;7.43;;;3.90;;
28311;SDS011;15572;48.810;9.148;2024-03-17T17:44:25;6.93;;;3.50;;
28311;SDS011;15572;48.810;9.148;2024-03-17T17:49:22;5.07;;;3.70;;
28311;SDS011;15572;48.810;9.148;2024-03-17T17:54:18;6.93;;;4.80;;
28311;SDS011;15572;48.810;9.148;2024-03-17T17:59:16;6.90;;;4.07;;
28311;SDS011;15572;48.810;9.148;2024-03-17T18:04:14;7.57;;;4.60;;
28311;SDS011;15572;48.810;9.148;2024-03-17T18:09:11;6.23;;;3.90;;
28311;SDS011;15572;48.810;9.148;2024-03-17T18:14:13;5.83;;;3.97;;
28311;SDS011;15572;48.810;9.148;2024-03-17T18:19:10;7.37;;;3.80;;
28311;SDS011;15572;48.810;9.148;2024-03-17T18:24:08;6.10;;;3.57;;
28311;SDS011;15572;48.810;9.148;2024-03-17T18:29:04;6.13;;;4.00;;
28311;SDS011;15572;48.810;9.148;2024-03-17T18:34:01;8.50;;;3.50;;
28311;SDS011;15572;48.810;9.148;2024-03-17T18:38:57;6.63;;;3.30;;
28311;SDS011;15572;48.810;9.148;2024-03-17T18:43:55;6.33;;;3.87;;
28311;SDS011;15572;48.810;9.148;2024-03-17T18:48:52;6.43;;;4.83;;
28311;SDS011;15572;48.810;9.148;2024-03-17T18:53:48;17.33;;;9.63;;
28311;SDS011;15572;48.810;9.148;2024-03-17T18:58:48;9.20;;;4.73;;
28311;SDS011;15572;48.810;9.148;2024-03-17T19:03:46;5.17;;;2.57;;
28311;SDS011;15572;48.810;9.148;2024-03-17T19:08:44;5.97;;;2.83;;
28311;SDS011;15572;48.810;9.148;2024-03-17T19:13:41;3.40;;;2.67;;
28311;SDS011;15572;48.810;9.148;2024-03-17T19:18:37;7.13;;;3.37;;
28311;SDS011;15572;48.810;9.148;2024-03-17T19:23:36;6.23;;;3.20;;
28311;SDS011;15572;48.810;9.148;2024-03-17T19:28:34;4.50;;;2.90;;
28311;SDS011;15572;48.810;9.148;2024-03-17T19:33:31;4.03;;;2.60;;
28311;SDS011;15572;48.810;9.148;2024-03-17T19:38:28;4.40;;;2.70;;
28311;SDS011;15572;48.810;9.148;2024-03-17T19:43:26;3.60;;;2.73;;
28311;SDS011;15572;48.810;9.148;2024-03-17T19:48:24;5.13;;;2.77;;
28311;SDS011;15572;48.810;9.148;2024-03-17T19:53:20;3.83;;;2.30;;
28311;SDS011;15572;48.810;9.148;2024-03-17T19:58:17;5.00;;;2.70;;
28311;SDS011;15572;48.810;9.148;2024-03-17T20:03:15;5.23;;;3.30;;
28311;SDS011;15572;48.810;9.148;2024-03-17T20:08:11;5.70;;;3.10;;
28311;SDS011;15572;48.810;9.148;2024-03-17T20:13:07;5.10;;;2.73;;
28311;SDS011;15572;48.810;9.148;2024-03-17T20:18:04;5.43;;;2.90;;
28311;SDS011;15572;48.810;9.148;2024-03-17T20:23:02;6.33;;;3.43;;
28311;SDS011;15572;48.810;9.148;2024-03-17T20:28:00;6.33;;;3.40;;
28311;SDS011;15572;48.810;9.148;2024-03-17T20:32:57;4.60;;;3.00;;
28311;SDS011;15572;48.810;9.148;2024-03-17T20:37:55;5.00;;;3.63;;
28311;SDS011;15572;48.810;9.148;2024-03-17T20:42:54;5.63;;;4.13;;
28311;SDS011;15572;48.810;9.148;2024-03-17T20:47:52;5.70;;;3.30;;
28311;SDS011;15572;48.810;9.148;2024-03-17T20:52:50;4.87;;;3.20;;
28311;SDS011;15572;48.810;9.148;2024-03-17T20:57:48;6.40;;;3.00;;
28311;SDS011;15572;48.810;9.148;2024-03-17T21:02:45;8.30;;;4.10;;
28311;SDS011;15572;48.810;9.148;2024-03-17T21:07:43;4.27;;;3.00;;
28311;SDS011;15572;48.810;9.148;2024-03-17T21:12:39;6.40;;;3.40;;
28311;SDS011;15572;48.810;9.148;2024-03-17T21:17:36;6.17;;;3.80;;
28311;SDS011;15572;48.810;9.148;2024-03-17T21:22:34;6.00;;;3.90;;
28311;SDS011;15572;48.810;9.148;2024-03-17T21:27:31;6.23;;;4.60;;
28311;SDS011;15572;48.810;9.148;2024-03-17T21:32:28;6.57;;;3.67;;
28311;SDS011;15572;48.810;9.148;2024-03-17T21:37:25;6.57;;;3.20;;
28311;SDS011;15572;48.810;9.148;2024-03-17T21:42:23;5.87;;;3.37;;
28311;SDS011;15572;48.810;9.148;2024-03-17T21:47:19;6.53;;;3.90;;
28311;SDS011;15572;48.810;9.148;2024-03-17T21:52:16;7.83;;;3.90;;
28311;SDS011;15572;48.810;9.148;2024-03-17T21:57:12;8.70;;;4.30;;
28311;SDS011;15572;48.810;9.148;2024-03-17T22:02:10;6.33;;;4.37;;
28311;SDS011;15572;48.810;9.148;2024-03-17T22:07:07;10.07;;;5.17;;
28311;SDS011;15572;48.810;9.148;2024-03-17T22:12:04;7.70;;;4.10;;
28311;SDS011;15572;48.810;9.148;2024-03-17T22:17:01;8.33;;;4.50;;
28311;SDS011;15572;48.810;9.148;2024-03-17T22:21:58;7.40;;;4.50;;
28311;SDS011;15572;48.810;9.148;2024-03-17T22:26:55;7.00;;;4.10;;
28311;SDS011;15572;48.810;9.148;2024-03-17T22:31:52;8.10;;;3.90;;
28311;SDS011;15572;48.810;9.148;2024-03-17T22:36:48;7.67;;;4.50;;
28311;SDS011;15572;48.810;9.148;2024-03-17T22:41:46;6.57;;;4.07;;
28311;SDS011;15572;48.810;9.148;2024-03-17T22:46:42;9.63;;;5.20;;
28311;SDS011;15572;48.810;9.148;2024-03-17T22:51:39;9.67;;;5.27;;
28311;SDS011;15572;48.810;9.148;2024-03-17T22:56:36;8.53;;;3.83;;
28311;SDS011;15572;48.810;9.148;2024-03-17T23:01:33;5.57;;;4.30;;
28311;SDS011;15572;48.810;9.148;2024-03-17T23:06:30;6.77;;;3.80;;
28311;SDS011;15572;48.810;9.148;2024-03-17T23:11:26;6.57;;;4.63;;
28311;SDS011;15572;48.810;9.148;2024-03-17T23:16:23;7.43;;;4.83;;
28311;SDS011;15572;48.810;9.148;2024-03-17T23:21:20;6.23;;;4.87;;
28311;SDS011;15572;48.810;9.148;2024-03-17T23:26:17;8.50;;;5.13;;
28311;SDS011;15572;48.810;9.148;2024-03-17T23:31:15;7.40;;;5.23;;
28311;SDS011;15572;48.810;9.148;2024-03-17T23:36:13;6.67;;;5.30;;
28311;SDS011;15572;48.810;9.148;2024-03-17T23:41:11;7.63;;;6.00;;
28311;SDS011;15572;48.810;9.148;2024-03-17T23:46:08;16.80;;;8.23;;
28311;SDS011;15572;48.810;9.148;2024-03-17T23:51:05;11.40;;;6.47;;
28311;SDS011;15572;48.810;9.148;2024-03-17T23:56:01;8.67;;;6.67;;
